Terminal Aerodrome Forecast
Issued by NWS Spokane, WA

Home | Current Version | Previous Version | Text Only | Print | Product List | Glossary On
Versions: 1 2 3 4 5 6 7 8 9 10 11 12 13 14 15 16 17 18 19 20 21
000
FTUS46 KOTX 211342 AAA
TAFGEG
TAF AMD
KGEG 211342Z 2114/2212 VRB04KT P6SM -RA SCT010 OVC040
      TEMPO 2114/2116 4SM RA BR BKN005 OVC020
     FM211600 14004KT P6SM VCSH BKN010 OVC040
     FM211900 05004KT P6SM SCT018 OVC050
     FM212100 36005KT P6SM VCSH SCT030 BKN060
     FM220000 02006KT P6SM BKN050 BKN100
     FM220600 VRB04KT P6SM SCT100 BKN200=

USA.gov is the U.S. government's official web portal to all federal, state and local government web resources and services.